Overview Statistics Trail Chart Weather Telemetry Raw packets
 

This is the latest recevied weather packets stored in our database for station/object NK7E-1. If no packets are shown the sender has not sent any weather packets the latest 10 day(s).

<< 1 2 3 4 >>
Time Temp. Humidity Pressure Rain* Wind** Luminosity Snow
1788604200 23.89° C 71% 1015.9 hPa 0 mm - - -
1788603600 23.89° C 71% 1016 hPa 0 mm - - -
1788603000 23.89° C 71% 1015.9 hPa 0 mm - - -
1788602401 23.89° C 70% 1015.9 hPa 0 mm - - -
1788601800 24.44° C 69% 1016 hPa 0 mm - - -
1788601200 24.44° C 68% 1016 hPa 0 mm - - -
1788600600 24.44° C 68% 1015.9 hPa 0 mm - - -
1788600000 24.44° C 68% 1016 hPa 0 mm - - -
1788599401 25° C 67% 1016 hPa 0 mm - - -
1788598801 25° C 65% 1016 hPa 0 mm - - -
1788598200 25.56° C 64% 1016.1 hPa 0 mm - - -
1788597600 25.56° C 63% 1016 hPa 0 mm - - -
1788597000 25.56° C 62% 1016 hPa 0 mm - - -
1788596401 26.11° C 61% 1016 hPa 0 mm - - -
1788595801 26.11° C 60% 1016.1 hPa 0 mm - - -
1788595200 26.11° C 60% 1016.2 hPa 0 mm - - -
1788594605 26.11° C 59% 1016.3 hPa 0 mm - - -
1788594003 26.67° C 58% 1016.3 hPa 0 mm - - -
1788593403 27.22° C 54% 1016.2 hPa 0 mm - - -
1788592819 26.67° C 57% 1016 hPa 0 mm - - -
1788592203 26.67° C 58% 1016 hPa 0 mm - - -
1788591603 26.67° C 58% 1016 hPa 0 mm - - -
1788591002 27.22° C 57% 1016 hPa 0 mm - - -
1788590403 27.22° C 56% 1015.9 hPa 0 mm - - -
1788589802 27.22° C 55% 1015.9 hPa 0 mm - - -

* Rain latest hour (hover to see other rain measurements)
** Current wind speed in m/s (hover to see current wind gust speed)